createdAt,value
2022-10-04T00:04:26.060Z,6.75
2022-10-04T00:09:33.339Z,5.70
2022-10-04T00:14:40.641Z,6.00
2022-10-04T00:19:47.049Z,5.85
2022-10-04T00:25:22.885Z,6.22
2022-10-04T00:30:27.072Z,7.00
2022-10-04T00:35:48.772Z,7.35
2022-10-04T00:40:54.308Z,6.63
2022-10-04T00:46:00.684Z,5.40
2022-10-04T00:51:08.918Z,5.57
2022-10-04T00:56:14.552Z,7.05
2022-10-04T01:01:23.589Z,4.82
2022-10-04T01:06:26.909Z,4.82
2022-10-04T01:11:31.691Z,5.78
2022-10-04T01:16:36.967Z,5.97
2022-10-04T01:21:40.244Z,6.45
2022-10-04T01:26:44.798Z,6.53
2022-10-04T01:31:48.957Z,5.80
2022-10-04T01:36:54.238Z,5.07
2022-10-04T01:42:01.673Z,5.38
2022-10-04T01:47:09.274Z,6.07
2022-10-04T01:52:16.492Z,5.65
2022-10-04T01:57:23.562Z,7.47
2022-10-04T02:02:30.560Z,6.05
2022-10-04T02:07:33.954Z,7.80
2022-10-04T02:12:39.205Z,6.28
2022-10-04T02:17:43.666Z,6.00
2022-10-04T02:22:47.845Z,5.93
2022-10-04T02:27:54.614Z,5.15
2022-10-04T02:32:59.871Z,5.18
2022-10-04T02:38:08.049Z,5.47
2022-10-04T02:43:15.825Z,7.50
2022-10-04T02:48:31.381Z,4.90
2022-10-04T02:53:39.263Z,6.25
2022-10-04T02:58:44.446Z,6.93
2022-10-04T03:03:48.661Z,7.60
2022-10-04T03:08:54.694Z,5.38
2022-10-04T03:14:00.292Z,6.53
2022-10-04T03:19:03.138Z,4.78
2022-10-04T03:24:06.633Z,5.95
2022-10-04T03:29:12.554Z,7.65
2022-10-04T03:34:16.504Z,7.18
2022-10-04T03:39:28.662Z,7.65
2022-10-04T03:44:32.860Z,6.88
2022-10-04T03:49:38.093Z,6.28
2022-10-04T03:54:41.155Z,8.00
2022-10-04T03:59:45.226Z,7.32
2022-10-04T04:04:53.923Z,8.40
2022-10-04T04:10:01.387Z,8.23
2022-10-04T04:15:07.169Z,6.60
2022-10-04T04:20:24.700Z,7.22
2022-10-04T04:25:28.338Z,7.80
2022-10-04T04:30:32.858Z,6.07
2022-10-04T04:35:36.278Z,7.10
2022-10-04T04:40:39.237Z,8.52
2022-10-04T04:45:43.648Z,8.98
2022-10-04T04:50:50.886Z,6.93
2022-10-04T04:56:03.698Z,9.07
2022-10-04T05:01:17.002Z,7.63
2022-10-04T05:06:25.696Z,5.30
2022-10-04T05:11:30.979Z,6.20
2022-10-04T05:16:39.503Z,6.18
2022-10-04T05:21:44.479Z,7.35
2022-10-04T05:26:51.056Z,10.27
2022-10-04T05:32:02.727Z,6.82
2022-10-04T05:37:35.540Z,7.50
2022-10-04T05:42:41.427Z,6.00
2022-10-04T05:47:46.574Z,5.70
2022-10-04T05:52:51.833Z,6.43
2022-10-04T05:58:11.808Z,5.57
2022-10-04T06:03:39.575Z,7.13
2022-10-04T06:08:50.524Z,6.75
2022-10-04T06:14:10.841Z,7.20
2022-10-04T06:19:26.808Z,6.50
2022-10-04T06:24:31.245Z,6.88
2022-10-04T06:29:38.046Z,5.82
2022-10-04T06:35:03.873Z,6.03
2022-10-04T06:40:37.424Z,4.70
2022-10-04T06:45:52.436Z,6.68
2022-10-04T06:51:01.410Z,5.72
2022-10-04T06:56:31.314Z,3.97
2022-10-04T07:01:35.320Z,5.38
2022-10-04T07:06:43.530Z,5.43
2022-10-04T07:11:50.951Z,4.80
2022-10-04T07:16:57.184Z,4.60
2022-10-04T07:22:12.187Z,4.10
2022-10-04T07:27:18.424Z,4.13
2022-10-04T07:32:23.245Z,5.45
2022-10-04T07:37:29.734Z,4.47
2022-10-04T07:42:35.037Z,4.80
2022-10-04T07:47:37.659Z,6.13
2022-10-04T07:52:54.646Z,5.05
2022-10-04T07:58:10.406Z,6.15
2022-10-04T08:03:24.811Z,4.95
2022-10-04T08:08:41.946Z,5.53
2022-10-04T08:13:52.620Z,4.38
2022-10-04T08:19:07.420Z,4.85
2022-10-04T08:24:19.216Z,5.32
2022-10-04T08:29:47.250Z,5.38
2022-10-04T08:35:05.158Z,5.22
2022-10-04T08:40:49.417Z,4.47
2022-10-04T08:46:16.023Z,4.45
2022-10-04T08:52:12.002Z,4.88
2022-10-04T08:57:49.179Z,3.95
2022-10-04T09:03:31.140Z,5.25
2022-10-04T09:09:10.974Z,4.07
2022-10-04T09:14:41.294Z,4.20
2022-10-04T09:19:54.763Z,4.25
2022-10-04T09:25:14.454Z,3.83
2022-10-04T09:30:20.733Z,4.07
2022-10-04T09:35:35.225Z,3.60
2022-10-04T09:40:50.444Z,4.60
2022-10-04T09:46:16.787Z,3.35
2022-10-04T09:51:55.508Z,7.45
2022-10-04T09:57:19.694Z,4.82
2022-10-04T10:02:49.941Z,8.43
2022-10-04T10:07:59.007Z,4.47
2022-10-04T10:13:38.145Z,4.50
2022-10-04T10:18:53.022Z,6.75
2022-10-04T10:24:17.101Z,6.18
2022-10-04T10:29:47.056Z,5.10
2022-10-04T10:35:14.129Z,5.03
2022-10-04T10:40:27.167Z,4.43
2022-10-04T10:45:49.496Z,5.43
2022-10-04T10:51:03.270Z,6.10
2022-10-04T10:56:29.371Z,6.55
2022-10-04T11:02:00.004Z,7.18
2022-10-04T11:07:29.802Z,11.00
2022-10-04T11:12:58.047Z,14.52
2022-10-04T11:18:18.480Z,11.68
2022-10-04T11:23:52.440Z,10.18
2022-10-04T11:28:58.966Z,9.73
2022-10-04T11:34:32.887Z,12.13
2022-10-04T11:39:48.897Z,12.98
2022-10-04T11:45:06.165Z,10.13
2022-10-04T11:50:25.673Z,7.22
2022-10-04T11:56:13.689Z,8.77
2022-10-04T12:01:49.234Z,11.32
2022-10-04T12:07:08.218Z,6.40
2022-10-04T12:12:41.689Z,9.27
2022-10-04T12:18:14.477Z,6.88
2022-10-04T12:23:55.404Z,8.90
2022-10-04T12:29:14.753Z,6.85
2022-10-04T12:34:24.614Z,9.82
2022-10-04T12:39:43.496Z,5.70
2022-10-04T12:44:59.119Z,5.90
2022-10-04T12:50:07.303Z,5.88
2022-10-04T12:55:21.433Z,4.88
2022-10-04T13:00:26.151Z,4.40
2022-10-04T13:05:35.278Z,6.88
2022-10-04T13:10:47.725Z,7.57
2022-10-04T13:21:25.123Z,7.97
2022-10-04T13:26:42.242Z,6.28
2022-10-04T13:31:50.297Z,5.18
2022-10-04T13:37:17.367Z,4.90
2022-10-04T13:42:49.287Z,6.70
2022-10-04T13:48:12.747Z,5.18
2022-10-04T13:53:42.567Z,5.85
2022-10-04T13:58:48.155Z,4.78
2022-10-04T14:04:05.566Z,6.70
2022-10-04T14:09:35.882Z,6.07
2022-10-04T14:15:15.926Z,6.38
2022-10-04T14:20:53.133Z,4.32
2022-10-04T14:26:15.883Z,4.50
2022-10-04T14:31:47.165Z,6.05
2022-10-04T14:37:05.219Z,4.03
2022-10-04T14:42:41.492Z,5.35
2022-10-04T14:48:25.304Z,6.45
2022-10-04T14:53:32.848Z,6.00
2022-10-04T14:58:41.975Z,5.70
2022-10-04T15:03:51.871Z,5.05
2022-10-04T15:09:33.262Z,4.38
2022-10-04T15:14:40.006Z,4.93
2022-10-04T15:20:02.320Z,3.65
2022-10-04T15:25:40.289Z,5.53
2022-10-04T15:30:52.501Z,4.57
2022-10-04T15:36:43.858Z,4.32
2022-10-04T15:41:50.175Z,4.47
2022-10-04T15:46:56.839Z,6.50
2022-10-04T15:52:12.444Z,4.70
2022-10-04T15:57:33.833Z,3.85
2022-10-04T16:03:03.511Z,3.92
2022-10-04T16:08:25.674Z,4.38
2022-10-04T16:13:38.743Z,4.32
2022-10-04T16:18:46.218Z,4.30
2022-10-04T16:23:49.082Z,5.63
2022-10-04T16:29:12.756Z,4.22
2022-10-04T16:34:41.656Z,6.28
2022-10-04T16:40:03.173Z,4.25
2022-10-04T16:45:50.597Z,5.15
2022-10-04T16:51:24.231Z,4.13
2022-10-04T16:56:28.410Z,5.60
2022-10-04T17:01:40.559Z,5.03
2022-10-04T17:06:49.100Z,4.00
2022-10-04T17:12:05.060Z,4.57
2022-10-04T17:17:15.818Z,3.95
2022-10-04T17:22:27.573Z,4.72
2022-10-04T17:27:46.421Z,3.65
2022-10-04T17:33:22.727Z,5.50
2022-10-04T17:38:32.230Z,4.22
2022-10-04T17:43:41.261Z,4.43
2022-10-04T17:49:05.176Z,4.32
2022-10-04T17:54:30.912Z,3.63
2022-10-04T17:59:41.393Z,3.70
2022-10-04T18:04:48.901Z,6.22
2022-10-04T18:09:54.028Z,4.57
2022-10-04T18:15:06.036Z,4.30
2022-10-04T18:20:22.463Z,3.50
2022-10-04T18:25:31.993Z,4.00
2022-10-04T18:30:35.758Z,4.50
2022-10-04T18:35:51.671Z,5.82
2022-10-04T18:40:57.131Z,4.75
2022-10-04T18:46:04.421Z,4.93
2022-10-04T18:51:25.447Z,4.45
2022-10-04T18:56:33.930Z,5.20
2022-10-04T19:02:01.532Z,4.43
2022-10-04T19:07:08.605Z,4.40
2022-10-04T19:12:17.030Z,5.35
2022-10-04T19:17:23.113Z,5.35
2022-10-04T19:22:37.548Z,5.18
2022-10-04T19:27:45.324Z,4.85
2022-10-04T19:33:06.798Z,4.93
2022-10-04T19:38:24.496Z,4.68
2022-10-04T19:43:34.140Z,5.43
2022-10-04T19:48:41.610Z,5.28
2022-10-04T19:53:45.665Z,4.25
2022-10-04T19:58:54.849Z,4.90
2022-10-04T20:04:11.839Z,4.10
2022-10-04T20:09:26.390Z,4.65
2022-10-04T20:15:14.806Z,4.38
2022-10-04T20:20:57.372Z,5.18
2022-10-04T20:26:01.727Z,4.63
2022-10-04T20:31:06.675Z,4.75
2022-10-04T20:36:12.252Z,5.03
2022-10-04T20:42:22.440Z,5.18
2022-10-04T20:47:46.206Z,6.00
2022-10-04T20:52:53.717Z,4.78
2022-10-04T20:58:01.333Z,4.05
2022-10-04T21:03:15.262Z,4.32
2022-10-04T21:08:26.387Z,4.80
2022-10-04T21:13:57.172Z,4.50
2022-10-04T21:19:30.999Z,4.93
2022-10-04T21:24:37.495Z,6.82
2022-10-04T21:29:40.861Z,5.93
2022-10-04T21:34:58.835Z,5.00
2022-10-04T21:40:03.199Z,6.25
2022-10-04T21:45:06.448Z,5.13
2022-10-04T21:50:09.895Z,4.30
2022-10-04T21:55:14.080Z,5.63
2022-10-04T22:00:17.101Z,4.63
2022-10-04T22:05:19.851Z,5.90
2022-10-04T22:10:23.940Z,4.30
2022-10-04T22:15:27.882Z,4.70
2022-10-04T22:20:30.935Z,4.95
2022-10-04T22:25:34.966Z,7.53
2022-10-04T22:30:37.690Z,8.23
2022-10-04T22:35:40.486Z,5.75
2022-10-04T22:40:44.510Z,7.28
2022-10-04T22:45:47.203Z,5.40
2022-10-04T22:50:50.874Z,8.60
2022-10-04T22:55:56.116Z,5.40
2022-10-04T23:00:58.796Z,5.45
2022-10-04T23:06:03.503Z,5.53
2022-10-04T23:11:07.683Z,5.30
2022-10-04T23:16:13.884Z,5.20
2022-10-04T23:21:21.903Z,5.07
2022-10-04T23:26:32.958Z,4.38
2022-10-04T23:31:37.365Z,7.90
2022-10-04T23:36:40.121Z,5.72
2022-10-04T23:41:45.014Z,5.43
2022-10-04T23:46:48.082Z,6.72
2022-10-04T23:51:53.750Z,7.05
2022-10-04T23:56:57.776Z,6.50
